createdAt,value
2018-05-13T00:00:46.160Z,12.70
2018-05-13T00:03:13.899Z,12.17
2018-05-13T00:05:41.871Z,13.63
2018-05-13T00:08:09.421Z,12.60
2018-05-13T00:10:36.933Z,12.87
2018-05-13T00:13:04.512Z,13.60
2018-05-13T00:15:32.181Z,14.23
2018-05-13T00:17:59.805Z,14.40
2018-05-13T00:20:27.470Z,13.47
2018-05-13T00:22:55.101Z,13.67
2018-05-13T00:25:22.721Z,13.17
2018-05-13T00:27:50.383Z,11.33
2018-05-13T00:30:17.988Z,11.97
2018-05-13T00:32:45.529Z,12.57
2018-05-13T00:35:13.072Z,11.83
2018-05-13T00:37:40.613Z,13.10
2018-05-13T00:40:08.218Z,12.53
2018-05-13T00:42:35.874Z,15.13
2018-05-13T00:45:03.582Z,14.20
2018-05-13T00:47:31.356Z,12.90
2018-05-13T00:49:58.993Z,14.07
2018-05-13T00:52:26.624Z,14.20
2018-05-13T00:54:58.997Z,13.93
2018-05-13T00:57:26.545Z,13.10
2018-05-13T00:59:54.163Z,11.07
2018-05-13T01:02:21.853Z,13.37
2018-05-13T01:04:49.508Z,13.73
2018-05-13T01:07:17.064Z,14.00
2018-05-13T01:09:44.584Z,12.63
2018-05-13T01:12:12.280Z,12.47
2018-05-13T01:14:39.970Z,13.97
2018-05-13T01:17:07.592Z,13.33
2018-05-13T01:19:35.205Z,13.60
2018-05-13T01:22:02.868Z,13.87
2018-05-13T01:24:30.393Z,11.57
2018-05-13T01:26:57.925Z,12.40
2018-05-13T01:29:25.488Z,11.50
2018-05-13T01:31:53.042Z,12.27
2018-05-13T01:34:20.561Z,11.97
2018-05-13T01:36:48.153Z,12.50
2018-05-13T01:39:15.656Z,12.10
2018-05-13T01:41:43.232Z,12.70
2018-05-13T01:46:44.422Z,12.60
2018-05-13T01:49:11.974Z,11.73
2018-05-13T01:51:39.505Z,10.97
2018-05-13T01:54:07.128Z,12.27
2018-05-13T01:56:34.828Z,12.33
2018-05-13T01:59:02.385Z,12.00
2018-05-13T02:01:30.119Z,11.50
2018-05-13T02:03:57.764Z,11.10
2018-05-13T02:06:25.304Z,11.73
2018-05-13T02:08:52.806Z,11.50
2018-05-13T02:11:20.688Z,11.63
2018-05-13T02:13:48.427Z,12.13
2018-05-13T02:16:16.239Z,12.40
2018-05-13T02:18:43.766Z,11.87
2018-05-13T02:21:11.298Z,12.10
2018-05-13T02:23:38.848Z,12.37
2018-05-13T02:26:06.404Z,10.27
2018-05-13T02:28:34.080Z,10.20
2018-05-13T02:31:01.787Z,12.23
2018-05-13T02:33:29.386Z,11.87
2018-05-13T02:35:57.023Z,12.40
2018-05-13T02:38:24.776Z,10.40
2018-05-13T02:40:52.406Z,11.30
2018-05-13T02:43:20.159Z,11.90
2018-05-13T02:45:47.757Z,11.90
2018-05-13T02:48:15.269Z,10.80
2018-05-13T02:50:42.817Z,12.00
2018-05-13T02:53:10.549Z,10.43
2018-05-13T02:55:38.109Z,11.47
2018-05-13T02:58:05.659Z,11.37
2018-05-13T03:00:33.209Z,11.47
2018-05-13T03:03:00.720Z,10.97
2018-05-13T03:05:28.378Z,11.30
2018-05-13T03:07:55.975Z,11.87
2018-05-13T03:10:23.609Z,10.50
2018-05-13T03:12:51.195Z,12.07
2018-05-13T03:15:18.909Z,11.73
2018-05-13T03:17:47.018Z,11.77
2018-05-13T03:20:14.609Z,11.90
2018-05-13T03:22:42.143Z,10.80
2018-05-13T03:25:10.924Z,9.97
2018-05-13T03:27:38.441Z,12.07
2018-05-13T03:30:05.970Z,10.17
2018-05-13T03:32:33.498Z,10.40
2018-05-13T03:35:01.021Z,10.33
2018-05-13T03:37:28.635Z,11.60
2018-05-13T03:39:56.252Z,10.90
2018-05-13T03:42:24.192Z,10.50
2018-05-13T03:44:52.176Z,10.63
2018-05-13T03:47:20.292Z,11.50
2018-05-13T03:49:47.937Z,10.20
2018-05-13T03:52:15.525Z,10.53
2018-05-13T03:54:43.149Z,9.47
2018-05-13T03:57:11.838Z,10.50
2018-05-13T03:59:39.378Z,11.03
2018-05-13T04:04:40.846Z,11.77
2018-05-13T04:07:08.465Z,11.80
2018-05-13T04:09:47.624Z,10.50
2018-05-13T04:12:26.929Z,11.13
2018-05-13T04:15:06.072Z,9.63
2018-05-13T04:17:33.666Z,11.10
2018-05-13T04:20:01.244Z,10.93
2018-05-13T04:22:28.757Z,10.40
2018-05-13T04:24:56.277Z,9.87
2018-05-13T04:27:23.796Z,10.53
2018-05-13T04:29:51.336Z,11.40
2018-05-13T04:32:18.930Z,10.40
2018-05-13T04:34:46.509Z,10.53
2018-05-13T04:37:14.148Z,10.60
2018-05-13T04:39:41.826Z,10.13
2018-05-13T04:42:09.444Z,10.53
2018-05-13T04:44:37.145Z,11.27
2018-05-13T04:47:04.761Z,9.30
2018-05-13T04:49:32.412Z,10.03
2018-05-13T04:52:00.052Z,9.40
2018-05-13T04:54:27.738Z,10.37
2018-05-13T04:56:55.391Z,9.70
2018-05-13T04:59:22.913Z,10.63
2018-05-13T05:01:50.532Z,10.97
2018-05-13T05:04:18.127Z,10.53
2018-05-13T05:06:45.769Z,11.90
2018-05-13T05:09:13.446Z,9.70
2018-05-13T05:11:41.054Z,9.47
2018-05-13T05:14:08.624Z,9.53
2018-05-13T05:16:36.161Z,9.87
2018-05-13T05:19:03.748Z,10.00
2018-05-13T05:21:31.291Z,8.63
2018-05-13T05:23:58.849Z,9.47
2018-05-13T05:26:26.429Z,9.20
2018-05-13T05:28:53.959Z,9.70
2018-05-13T05:31:21.485Z,9.13
2018-05-13T05:33:49.008Z,9.53
2018-05-13T05:36:16.647Z,9.60
2018-05-13T05:38:44.307Z,9.70
2018-05-13T05:41:11.894Z,10.50
2018-05-13T05:43:39.461Z,10.37
2018-05-13T05:46:07.048Z,8.63
2018-05-13T05:48:34.678Z,10.73
2018-05-13T05:51:02.201Z,11.57
2018-05-13T05:53:29.703Z,12.00
2018-05-13T05:55:57.230Z,11.10
2018-05-13T05:58:24.859Z,11.90
2018-05-13T06:00:52.401Z,13.10
2018-05-13T06:03:20.021Z,12.77
2018-05-13T06:05:47.580Z,13.27
2018-05-13T06:08:15.154Z,14.70
2018-05-13T06:10:42.713Z,14.43
2018-05-13T06:13:10.620Z,14.20
2018-05-13T06:15:38.225Z,13.90
2018-05-13T06:18:05.809Z,13.60
2018-05-13T06:20:33.459Z,13.27
2018-05-13T06:23:01.001Z,12.90
2018-05-13T06:25:28.692Z,13.17
2018-05-13T06:27:57.232Z,13.63
2018-05-13T06:30:24.773Z,11.97
2018-05-13T06:32:52.295Z,12.27
2018-05-13T06:35:19.922Z,11.10
2018-05-13T06:37:48.117Z,12.00
2018-05-13T06:40:15.679Z,12.03
2018-05-13T06:42:43.221Z,11.80
2018-05-13T06:45:10.837Z,11.70
2018-05-13T06:47:38.595Z,13.93
2018-05-13T06:50:06.132Z,11.90
2018-05-13T06:52:33.685Z,11.57
2018-05-13T06:55:01.233Z,11.67
2018-05-13T06:57:28.850Z,12.27
2018-05-13T06:59:56.413Z,12.17
2018-05-13T07:02:24.049Z,12.20
2018-05-13T07:04:51.583Z,12.10
2018-05-13T07:07:19.228Z,10.93
2018-05-13T07:09:46.796Z,10.80
2018-05-13T07:12:14.465Z,11.00
2018-05-13T07:14:42.109Z,10.13
2018-05-13T07:17:10.104Z,12.47
2018-05-13T07:19:37.789Z,10.57
2018-05-13T07:22:05.317Z,12.50
2018-05-13T07:24:32.879Z,10.73
2018-05-13T07:27:00.437Z,11.37
2018-05-13T07:32:06.253Z,9.93
2018-05-13T07:34:33.794Z,11.10
2018-05-13T07:37:01.371Z,10.37
2018-05-13T07:39:29.013Z,11.30
2018-05-13T07:41:56.564Z,10.10
2018-05-13T07:44:24.109Z,10.70
2018-05-13T07:46:51.623Z,10.23
2018-05-13T07:49:19.204Z,9.93
2018-05-13T07:51:46.905Z,10.07
2018-05-13T07:54:14.560Z,9.43
2018-05-13T07:56:42.124Z,11.13
2018-05-13T07:59:10.599Z,19.80
2018-05-13T08:01:38.221Z,14.73
2018-05-13T08:04:05.919Z,12.30
2018-05-13T08:06:33.666Z,10.77
2018-05-13T08:09:02.363Z,9.50
2018-05-13T08:11:32.960Z,8.80
2018-05-13T08:14:00.488Z,10.10
2018-05-13T08:16:28.038Z,9.93
2018-05-13T08:18:55.992Z,8.90
2018-05-13T08:23:57.260Z,8.73
2018-05-13T08:26:24.806Z,9.63
2018-05-13T08:28:52.468Z,9.30
2018-05-13T08:31:20.935Z,10.97
2018-05-13T08:33:48.451Z,10.33
2018-05-13T08:36:15.989Z,9.53
2018-05-13T08:38:43.578Z,9.37
2018-05-13T08:41:11.480Z,8.60
2018-05-13T08:43:39.179Z,10.47
2018-05-13T08:46:06.779Z,9.60
2018-05-13T08:48:35.529Z,10.47
2018-05-13T08:51:04.210Z,9.30
2018-05-13T08:53:31.789Z,9.67
2018-05-13T08:55:59.356Z,9.00
2018-05-13T08:58:28.068Z,9.37
2018-05-13T09:00:56.915Z,11.13
2018-05-13T09:03:24.969Z,11.23
2018-05-13T09:05:52.623Z,10.60
2018-05-13T09:08:20.308Z,12.17
2018-05-13T09:10:48.562Z,10.80
2018-05-13T09:13:18.935Z,12.03
2018-05-13T09:15:50.238Z,15.30
2018-05-13T09:18:17.924Z,12.97
2018-05-13T09:20:49.436Z,10.10
2018-05-13T09:23:16.946Z,9.90
2018-05-13T09:25:45.474Z,10.80
2018-05-13T09:28:13.006Z,10.60
2018-05-13T09:30:40.700Z,9.30
2018-05-13T09:33:08.460Z,10.27
2018-05-13T09:35:36.652Z,10.30
2018-05-13T09:38:05.307Z,9.40
2018-05-13T09:40:33.557Z,10.63
2018-05-13T09:43:02.021Z,9.00
2018-05-13T09:45:29.715Z,8.97
2018-05-13T09:47:57.357Z,9.10
2018-05-13T09:50:27.536Z,9.43
2018-05-13T09:52:55.824Z,8.93
2018-05-13T09:55:25.484Z,10.30
2018-05-13T09:57:53.151Z,8.80
2018-05-13T10:00:22.754Z,9.73
2018-05-13T10:02:53.849Z,8.83
2018-05-13T10:05:22.442Z,9.60
2018-05-13T10:07:50.124Z,10.20
2018-05-13T10:10:23.987Z,8.93
2018-05-13T10:15:35.951Z,7.53
2018-05-13T10:18:03.508Z,9.23
2018-05-13T10:20:34.625Z,8.77
2018-05-13T10:23:07.055Z,8.63
2018-05-13T10:25:36.004Z,9.70
2018-05-13T10:28:04.823Z,8.40
2018-05-13T10:30:36.432Z,8.20
2018-05-13T10:33:10.354Z,7.93
2018-05-13T10:35:47.994Z,7.87
2018-05-13T10:38:19.904Z,7.30
2018-05-13T10:40:49.039Z,7.93
2018-05-13T10:43:17.640Z,8.70
2018-05-13T10:45:47.695Z,7.80
2018-05-13T10:48:15.619Z,7.93
2018-05-13T10:50:44.318Z,8.90
2018-05-13T10:53:13.065Z,8.00
2018-05-13T10:55:43.619Z,7.93
2018-05-13T10:58:12.914Z,8.80
2018-05-13T11:00:41.165Z,7.73
2018-05-13T11:03:09.378Z,9.13
2018-05-13T11:05:37.718Z,9.90
2018-05-13T11:08:05.461Z,8.23
2018-05-13T11:10:33.452Z,8.50
2018-05-13T11:13:02.641Z,8.87
2018-05-13T11:15:32.466Z,8.83
2018-05-13T11:18:00.269Z,10.07
2018-05-13T11:20:29.021Z,8.90
2018-05-13T11:22:57.690Z,8.80
2018-05-13T11:25:29.602Z,8.80
2018-05-13T11:28:03.829Z,8.40
2018-05-13T11:30:35.019Z,8.40
2018-05-13T11:33:06.257Z,9.43
2018-05-13T11:35:42.836Z,7.80
2018-05-13T11:38:12.131Z,9.47
2018-05-13T11:40:43.829Z,10.07
2018-05-13T11:43:16.196Z,9.13
2018-05-13T11:45:45.067Z,8.37
2018-05-13T11:48:13.512Z,8.67
2018-05-13T11:50:41.186Z,8.57
2018-05-13T11:53:10.569Z,8.30
2018-05-13T11:55:39.164Z,8.30
2018-05-13T12:00:45.241Z,9.80
2018-05-13T12:03:12.913Z,9.17
2018-05-13T12:05:42.223Z,8.03
2018-05-13T12:08:10.292Z,8.07
2018-05-13T12:10:39.367Z,8.37
2018-05-13T12:13:07.384Z,10.00
2018-05-13T12:15:35.141Z,9.13
2018-05-13T12:18:02.673Z,8.60
2018-05-13T12:20:32.737Z,9.10
2018-05-13T12:23:00.979Z,8.97
2018-05-13T12:25:29.630Z,9.00
2018-05-13T12:27:57.709Z,8.47
2018-05-13T12:30:26.973Z,8.70
2018-05-13T12:32:56.051Z,9.07
2018-05-13T12:35:32.021Z,8.30
2018-05-13T12:38:00.824Z,8.03
2018-05-13T12:43:02.125Z,8.30
2018-05-13T12:45:29.765Z,7.57
2018-05-13T12:47:58.172Z,9.13
2018-05-13T12:50:25.831Z,8.07
2018-05-13T12:52:53.446Z,8.10
2018-05-13T12:55:26.820Z,8.17
2018-05-13T12:57:57.733Z,7.77
2018-05-13T13:00:33.659Z,8.80
2018-05-13T13:03:02.394Z,8.17
2018-05-13T13:05:33.501Z,6.83
2018-05-13T13:08:02.089Z,7.90
2018-05-13T13:10:29.703Z,7.70
2018-05-13T13:12:57.338Z,8.80
2018-05-13T13:15:27.208Z,7.50
2018-05-13T13:17:56.194Z,7.60
2018-05-13T13:20:23.782Z,7.50
2018-05-13T13:22:55.442Z,8.17
2018-05-13T13:25:23.268Z,7.90
2018-05-13T13:27:50.873Z,8.20
2018-05-13T13:30:19.431Z,7.13
2018-05-13T13:32:47.145Z,8.03
2018-05-13T13:35:18.849Z,7.80
2018-05-13T13:40:40.863Z,8.50
2018-05-13T13:43:09.540Z,8.30
2018-05-13T13:45:38.687Z,7.17
2018-05-13T13:48:19.952Z,8.13
2018-05-13T13:50:53.666Z,7.97
2018-05-13T13:53:23.817Z,7.80
2018-05-13T13:55:54.457Z,7.90
2018-05-13T13:58:25.553Z,7.10
2018-05-13T14:00:53.171Z,7.83
2018-05-13T14:03:24.557Z,8.40
2018-05-13T14:05:55.983Z,7.87
2018-05-13T14:08:29.482Z,7.50
2018-05-13T14:10:59.113Z,7.30
2018-05-13T14:13:28.857Z,8.30
2018-05-13T14:16:01.393Z,7.27
2018-05-13T14:18:29.915Z,7.77
2018-05-13T14:20:59.893Z,7.80
2018-05-13T14:23:31.651Z,7.90
2018-05-13T14:26:00.740Z,7.70
2018-05-13T14:28:29.830Z,8.10
2018-05-13T14:31:02.043Z,7.50
2018-05-13T14:36:04.428Z,9.03
2018-05-13T14:38:32.864Z,7.20
2018-05-13T14:41:00.827Z,7.40
2018-05-13T14:43:30.839Z,7.40
2018-05-13T14:46:01.301Z,7.60
2018-05-13T14:48:30.259Z,8.63
2018-05-13T14:50:57.779Z,8.27
2018-05-13T14:53:25.323Z,8.00
2018-05-13T14:55:55.003Z,8.00
2018-05-13T14:58:22.795Z,8.10
2018-05-13T15:00:51.798Z,7.73
2018-05-13T15:03:24.024Z,7.90
2018-05-13T15:05:52.523Z,7.80
2018-05-13T15:08:21.000Z,7.47
2018-05-13T15:10:48.585Z,8.03
2018-05-13T15:13:18.849Z,7.30
2018-05-13T15:15:46.932Z,7.90
2018-05-13T15:18:15.105Z,6.40
2018-05-13T15:20:42.692Z,8.50
2018-05-13T15:23:10.434Z,7.57
2018-05-13T15:25:38.051Z,7.70
2018-05-13T15:28:06.798Z,8.17
2018-05-13T15:30:34.449Z,7.40
2018-05-13T15:33:02.149Z,7.90
2018-05-13T15:35:29.680Z,8.50
2018-05-13T15:37:58.250Z,8.40
2018-05-13T15:40:26.681Z,7.63
2018-05-13T15:42:54.338Z,7.87
2018-05-13T15:45:25.740Z,7.00
2018-05-13T15:47:53.821Z,6.90
2018-05-13T15:50:23.376Z,7.73
2018-05-13T15:52:51.065Z,7.10
2018-05-13T15:55:18.838Z,8.23
2018-05-13T15:57:46.394Z,7.47
2018-05-13T16:00:14.100Z,7.50
2018-05-13T16:02:41.777Z,7.57
2018-05-13T16:05:09.410Z,6.93
2018-05-13T16:07:37.072Z,7.30
2018-05-13T16:10:04.719Z,6.53
2018-05-13T16:12:33.871Z,6.87
2018-05-13T16:15:01.718Z,6.63
2018-05-13T16:17:37.184Z,6.33
2018-05-13T16:20:08.358Z,6.67
2018-05-13T16:22:37.588Z,7.40
2018-05-13T16:25:05.631Z,6.57
2018-05-13T16:27:36.023Z,6.60
2018-05-13T16:30:05.565Z,6.87
2018-05-13T16:32:38.584Z,6.37
2018-05-13T16:35:08.771Z,6.70
2018-05-13T16:37:37.200Z,5.77
2018-05-13T16:40:08.831Z,6.83
2018-05-13T16:42:36.491Z,7.27
2018-05-13T16:45:04.975Z,6.57
2018-05-13T16:47:32.713Z,6.00
2018-05-13T16:50:03.770Z,7.10
2018-05-13T16:52:32.514Z,6.83
2018-05-13T16:55:01.287Z,6.87
2018-05-13T16:57:29.812Z,6.67
2018-05-13T17:00:00.228Z,6.83
2018-05-13T17:02:30.171Z,6.13
2018-05-13T17:04:58.874Z,7.80
2018-05-13T17:07:26.519Z,7.33
2018-05-13T17:09:54.131Z,7.33
2018-05-13T17:14:58.837Z,7.03
2018-05-13T17:17:29.351Z,6.60
2018-05-13T17:19:56.944Z,7.60
2018-05-13T17:22:28.057Z,7.83
2018-05-13T17:24:55.766Z,7.17
2018-05-13T17:27:29.135Z,7.87
2018-05-13T17:29:56.762Z,7.13
2018-05-13T17:32:24.228Z,7.77
2018-05-13T17:34:51.719Z,7.27
2018-05-13T17:37:22.154Z,6.97
2018-05-13T17:39:49.810Z,7.20
2018-05-13T17:42:18.363Z,7.87
2018-05-13T17:44:46.005Z,7.00
2018-05-13T17:47:14.904Z,6.53
2018-05-13T17:49:43.259Z,7.93
2018-05-13T17:52:10.811Z,8.30
2018-05-13T17:54:38.399Z,7.10
2018-05-13T17:57:05.970Z,7.80
2018-05-13T17:59:33.724Z,6.43
2018-05-13T18:02:02.311Z,7.13
2018-05-13T18:04:30.001Z,6.80
2018-05-13T18:06:57.681Z,7.70
2018-05-13T18:09:25.397Z,6.93
2018-05-13T18:11:52.977Z,6.47
2018-05-13T18:14:20.957Z,6.97
2018-05-13T18:16:49.044Z,8.37
2018-05-13T18:19:18.239Z,7.37
2018-05-13T18:21:45.888Z,6.90
2018-05-13T18:24:15.369Z,6.50
2018-05-13T18:26:42.901Z,7.67
2018-05-13T18:29:12.736Z,6.73
2018-05-13T18:31:41.611Z,9.17
2018-05-13T18:34:09.733Z,7.67
2018-05-13T18:36:38.377Z,8.57
2018-05-13T18:39:06.112Z,7.50
2018-05-13T18:41:33.795Z,8.07
2018-05-13T18:44:01.430Z,7.60
2018-05-13T18:46:29.075Z,7.37
2018-05-13T18:48:56.776Z,6.30
2018-05-13T18:51:25.182Z,6.43
2018-05-13T18:53:52.904Z,7.23
2018-05-13T18:56:20.713Z,6.50
2018-05-13T18:58:48.412Z,6.40
2018-05-13T19:01:16.685Z,6.83
2018-05-13T19:03:44.460Z,6.87
2018-05-13T19:06:13.162Z,6.13
2018-05-13T19:08:40.817Z,5.60
2018-05-13T19:11:11.038Z,6.10
2018-05-13T19:13:40.429Z,4.80
2018-05-13T19:16:08.080Z,5.70
2018-05-13T19:18:35.727Z,5.50
2018-05-13T19:21:03.324Z,5.20
2018-05-13T19:23:32.212Z,6.20
2018-05-13T19:25:59.899Z,5.13
2018-05-13T19:28:27.516Z,4.83
2018-05-13T19:30:55.277Z,5.17
2018-05-13T19:33:24.116Z,5.87
2018-05-13T19:35:52.332Z,4.40
2018-05-13T19:38:20.123Z,5.47
2018-05-13T19:40:47.878Z,4.60
2018-05-13T19:43:15.559Z,5.13
2018-05-13T19:45:43.136Z,5.07
2018-05-13T19:48:10.667Z,4.63
2018-05-13T19:50:38.271Z,4.33
2018-05-13T19:53:05.855Z,5.27
2018-05-13T19:55:33.462Z,5.30
2018-05-13T19:58:01.713Z,4.50
2018-05-13T20:00:29.259Z,4.60
2018-05-13T20:02:57.127Z,5.50
2018-05-13T20:05:24.763Z,5.40
2018-05-13T20:07:52.340Z,4.63
2018-05-13T20:10:19.859Z,5.53
2018-05-13T20:12:48.203Z,5.47
2018-05-13T20:15:17.508Z,5.53
2018-05-13T20:17:45.430Z,5.87
2018-05-13T20:20:13.108Z,5.63
2018-05-13T20:22:48.700Z,6.10
2018-05-13T20:25:16.799Z,5.20
2018-05-13T20:27:44.921Z,6.40
2018-05-13T20:30:12.523Z,6.13
2018-05-13T20:32:40.250Z,6.27
2018-05-13T20:35:07.857Z,5.97
2018-05-13T20:37:35.596Z,6.20
2018-05-13T20:40:03.251Z,6.23
2018-05-13T20:42:30.881Z,6.00
2018-05-13T20:44:59.436Z,6.10
2018-05-13T20:47:28.013Z,5.93
2018-05-13T20:49:55.607Z,5.37
2018-05-13T20:52:23.250Z,7.07
2018-05-13T20:54:50.841Z,5.87
2018-05-13T20:57:18.374Z,5.60
2018-05-13T20:59:45.933Z,5.33
2018-05-13T21:02:13.780Z,6.20
2018-05-13T21:04:41.327Z,6.37
2018-05-13T21:07:08.982Z,5.70
2018-05-13T21:09:36.571Z,6.57
2018-05-13T21:12:04.161Z,5.37
2018-05-13T21:14:31.803Z,6.37
2018-05-13T21:16:59.409Z,6.80
2018-05-13T21:19:27.009Z,6.13
2018-05-13T21:21:54.634Z,6.10
2018-05-13T21:24:22.270Z,6.20
2018-05-13T21:26:49.830Z,7.40
2018-05-13T21:29:18.806Z,5.67
2018-05-13T21:31:46.355Z,6.00
2018-05-13T21:34:13.862Z,6.40
2018-05-13T21:36:41.389Z,5.90
2018-05-13T21:39:08.943Z,6.17
2018-05-13T21:41:36.539Z,4.77
2018-05-13T21:44:04.104Z,6.60
2018-05-13T21:46:31.638Z,6.13
2018-05-13T21:48:59.159Z,6.07
2018-05-13T21:51:26.762Z,6.63
2018-05-13T21:53:54.440Z,6.60
2018-05-13T21:56:22.052Z,7.40
2018-05-13T21:58:50.013Z,6.40
2018-05-13T22:01:17.603Z,6.37
2018-05-13T22:03:45.208Z,6.10
2018-05-13T22:06:12.901Z,5.90
2018-05-13T22:08:40.560Z,6.73
2018-05-13T22:11:08.096Z,7.23
2018-05-13T22:13:35.779Z,6.70
2018-05-13T22:16:03.296Z,5.77
2018-05-13T22:18:30.839Z,5.43
2018-05-13T22:20:58.366Z,6.13
2018-05-13T22:23:25.852Z,6.63
2018-05-13T22:25:53.377Z,6.10
2018-05-13T22:28:20.964Z,5.83
2018-05-13T22:30:48.495Z,6.60
2018-05-13T22:33:16.035Z,7.40
2018-05-13T22:35:43.654Z,7.10
2018-05-13T22:38:11.241Z,6.87
2018-05-13T22:40:38.943Z,6.63
2018-05-13T22:43:06.809Z,7.03
2018-05-13T22:45:34.405Z,7.00
2018-05-13T22:48:01.993Z,6.90
2018-05-13T22:50:29.588Z,7.30
2018-05-13T22:52:57.127Z,6.67
2018-05-13T22:55:24.664Z,6.43
2018-05-13T22:57:52.373Z,7.27
2018-05-13T23:00:19.959Z,6.77
2018-05-13T23:02:47.544Z,6.07
2018-05-13T23:05:15.215Z,7.20
2018-05-13T23:07:42.768Z,6.40
2018-05-13T23:10:10.326Z,6.77
2018-05-13T23:12:37.919Z,6.13
2018-05-13T23:15:05.516Z,6.87
2018-05-13T23:17:33.112Z,6.20
2018-05-13T23:20:00.706Z,6.50
2018-05-13T23:22:35.104Z,5.97
2018-05-13T23:25:02.803Z,6.17
2018-05-13T23:27:30.437Z,6.23
2018-05-13T23:29:57.982Z,8.90
2018-05-13T23:32:25.515Z,7.63
2018-05-13T23:34:53.138Z,7.43
2018-05-13T23:39:54.607Z,6.93
2018-05-13T23:42:22.225Z,6.67
2018-05-13T23:44:49.795Z,6.60
2018-05-13T23:47:17.366Z,7.50
2018-05-13T23:49:44.953Z,7.53
2018-05-13T23:52:12.544Z,6.80
2018-05-13T23:54:40.146Z,8.10
2018-05-13T23:57:07.779Z,6.33
2018-05-13T23:59:35.312Z,7.23
